createdAt,value
2017-11-19T06:11:20.917Z,3
2017-11-19T06:18:21.352Z,7
2017-11-19T06:21:21.575Z,10
2017-11-19T06:24:21.747Z,13
2017-11-19T06:26:21.900Z,17
2017-11-19T06:27:21.901Z,20
2017-11-19T06:28:21.950Z,23
2017-11-19T06:29:22.012Z,27
2017-11-19T06:30:22.073Z,30
2017-11-19T06:31:22.234Z,33
2017-11-19T06:31:52.171Z,37
2017-11-19T06:32:52.225Z,40
2017-11-19T06:33:22.327Z,43
2017-11-19T06:33:52.309Z,47
2017-11-19T06:34:22.367Z,50
2017-11-19T06:34:52.364Z,53
2017-11-19T06:35:22.446Z,57
2017-11-19T06:35:52.482Z,60
2017-11-19T06:36:22.541Z,63
2017-11-19T06:36:52.495Z,70
2017-11-19T06:37:22.564Z,73
2017-11-19T06:37:52.625Z,77
2017-11-19T06:38:22.614Z,83
2017-11-19T06:38:52.660Z,87
2017-11-19T06:39:22.650Z,90
2017-11-19T06:39:52.680Z,97
2017-11-19T06:40:22.682Z,100
2017-11-19T06:40:52.748Z,107
2017-11-19T06:41:22.907Z,113
2017-11-19T06:41:52.827Z,117
2017-11-19T06:42:22.846Z,123
2017-11-19T06:42:52.890Z,130
2017-11-19T06:43:22.922Z,133
2017-11-19T06:43:52.963Z,140
2017-11-19T06:44:22.970Z,147
2017-11-19T06:44:53.025Z,153
2017-11-19T06:45:23.030Z,160
2017-11-19T06:45:53.102Z,167
2017-11-19T06:46:23.121Z,173
2017-11-19T06:46:53.144Z,180
2017-11-19T06:47:23.151Z,187
2017-11-19T06:47:53.211Z,193
2017-11-19T06:48:23.212Z,200
2017-11-19T06:48:53.271Z,210
2017-11-19T06:49:23.263Z,213
2017-11-19T06:49:53.336Z,217
2017-11-19T06:50:23.343Z,230
2017-11-19T06:50:53.355Z,233
2017-11-19T06:51:23.426Z,240
2017-11-19T06:51:53.470Z,243
2017-11-19T06:52:23.468Z,250
2017-11-19T06:52:53.479Z,260
2017-11-19T06:53:23.505Z,263
2017-11-19T06:53:53.571Z,273
2017-11-19T06:54:23.560Z,280
2017-11-19T06:54:53.584Z,287
2017-11-19T06:55:23.664Z,293
2017-11-19T06:55:53.685Z,300
2017-11-19T06:56:23.728Z,307
2017-11-19T06:56:53.709Z,317
2017-11-19T06:57:23.745Z,327
2017-11-19T06:57:53.764Z,333
2017-11-19T06:58:23.841Z,340
2017-11-19T06:58:53.833Z,353
2017-11-19T06:59:23.855Z,363
2017-11-19T06:59:53.888Z,373
2017-11-19T07:00:23.924Z,377
2017-11-19T07:00:53.946Z,383
2017-11-19T07:01:24.019Z,400
2017-11-19T07:01:54.013Z,423
2017-11-19T07:02:24.053Z,433
2017-11-19T07:02:54.065Z,450
2017-11-19T07:03:24.102Z,460
2017-11-19T07:03:54.164Z,473
2017-11-19T07:04:24.236Z,483
2017-11-19T07:04:54.193Z,497
2017-11-19T07:05:24.237Z,513
2017-11-19T07:05:54.253Z,527
2017-11-19T07:06:24.355Z,540
2017-11-19T07:06:54.345Z,557
2017-11-19T07:07:24.400Z,573
2017-11-19T07:07:54.405Z,597
2017-11-19T07:08:24.434Z,620
2017-11-19T07:08:54.453Z,643
2017-11-19T07:09:24.499Z,690
2017-11-19T07:09:54.550Z,713
2017-11-19T07:10:24.574Z,710
2017-11-19T07:10:54.598Z,713
2017-11-19T07:11:24.664Z,740
2017-11-19T07:11:54.633Z,803
2017-11-19T07:12:24.709Z,823
2017-11-19T07:12:54.690Z,843
2017-11-19T07:13:24.722Z,970
2017-11-19T07:13:54.741Z,1003
2017-11-19T07:14:24.849Z,1067
2017-11-19T07:14:54.825Z,1153
2017-11-19T07:15:24.910Z,1213
2017-11-19T07:15:54.880Z,1247
2017-11-19T07:16:24.985Z,1293
2017-11-19T07:16:54.926Z,1313
2017-11-19T07:17:24.962Z,1343
2017-11-19T07:17:55.004Z,1370
2017-11-19T07:18:25.023Z,1333
2017-11-19T07:18:55.055Z,1330
2017-11-19T07:19:25.137Z,1303
2017-11-19T07:19:55.155Z,1297
2017-11-19T07:20:25.141Z,1217
2017-11-19T07:20:55.179Z,1137
2017-11-19T07:21:25.335Z,1207
2017-11-19T07:21:55.239Z,1200
2017-11-19T07:22:25.338Z,1220
2017-11-19T07:22:55.338Z,1227
2017-11-19T07:23:25.341Z,1233
2017-11-19T07:23:55.403Z,1257
2017-11-19T07:24:25.448Z,1267
2017-11-19T07:24:55.468Z,1307
2017-11-19T07:25:25.526Z,1357
2017-11-19T07:25:55.517Z,1400
2017-11-19T07:26:25.629Z,1443
2017-11-19T07:26:55.608Z,1513
2017-11-19T07:27:25.622Z,1647
2017-11-19T07:27:55.662Z,1750
2017-11-19T07:28:25.706Z,1843
2017-11-19T07:28:55.727Z,1877
2017-11-19T07:29:25.756Z,1913
2017-11-19T07:29:55.771Z,2070
2017-11-19T07:30:25.806Z,1987
2017-11-19T07:30:55.874Z,1990
2017-11-19T07:31:25.895Z,2043
2017-11-19T07:31:55.884Z,2070
2017-11-19T07:32:25.946Z,1967
2017-11-19T07:32:55.925Z,1923
2017-11-19T07:33:26.020Z,1903
2017-11-19T07:33:56.005Z,1923
2017-11-19T07:34:26.066Z,1943
2017-11-19T07:34:56.109Z,1790
2017-11-19T07:35:26.111Z,1763
2017-11-19T07:35:56.158Z,1790
2017-11-19T07:36:26.158Z,1933
2017-11-19T07:36:56.276Z,1910
2017-11-19T07:37:26.246Z,1720
2017-11-19T07:37:56.276Z,1683
2017-11-19T07:38:26.294Z,1707
2017-11-19T07:38:56.316Z,1817
2017-11-19T07:39:26.372Z,1680
2017-11-19T07:39:56.399Z,1607
2017-11-19T07:40:26.397Z,1597
2017-11-19T07:40:56.429Z,2007
2017-11-19T07:41:26.442Z,2120
2017-11-19T07:41:56.567Z,1783
2017-11-19T07:42:26.510Z,2793
2017-11-19T07:42:56.574Z,2340
2017-11-19T07:43:26.574Z,2407
2017-11-19T07:43:56.616Z,2260
2017-11-19T07:44:26.653Z,3293
2017-11-19T07:44:56.677Z,4037
2017-11-19T07:45:26.719Z,2790
2017-11-19T07:45:56.735Z,4273
2017-11-19T07:46:26.772Z,4723
2017-11-19T07:46:56.837Z,4677
2017-11-19T07:47:26.804Z,5273
2017-11-19T07:47:56.830Z,5653
2017-11-19T07:48:26.872Z,6057
2017-11-19T07:48:56.894Z,6270
2017-11-19T07:49:27.185Z,6303
2017-11-19T07:49:56.957Z,6370
2017-11-19T07:50:26.981Z,6190
2017-11-19T07:50:57.019Z,6330
2017-11-19T07:51:27.052Z,5920
2017-11-19T07:51:57.166Z,5757
2017-11-19T07:52:27.116Z,4107
2017-11-19T07:52:57.184Z,4687
2017-11-19T07:53:27.173Z,4527
2017-11-19T07:53:57.204Z,3633
2017-11-19T07:54:27.281Z,3597
2017-11-19T07:54:57.311Z,4043
2017-11-19T07:55:27.348Z,3493
2017-11-19T07:55:57.378Z,3303
2017-11-19T07:56:27.402Z,2710
2017-11-19T07:56:57.476Z,2453
2017-11-19T07:57:27.480Z,2157
2017-11-19T07:57:57.446Z,1960
2017-11-19T07:58:27.536Z,1913
2017-11-19T07:58:57.564Z,1860
2017-11-19T07:59:27.543Z,1843
2017-11-19T07:59:57.598Z,1777
2017-11-19T08:00:27.628Z,1727
2017-11-19T08:00:57.631Z,1660
2017-11-19T08:01:27.673Z,1610
2017-11-19T08:01:57.709Z,1587
2017-11-19T08:02:27.783Z,1583
2017-11-19T08:02:57.765Z,1643
2017-11-19T08:03:27.795Z,1740
2017-11-19T08:03:57.824Z,1893
2017-11-19T08:04:27.852Z,2050
2017-11-19T08:04:57.906Z,2327
2017-11-19T08:05:27.909Z,2533
2017-11-19T08:05:57.940Z,2670
2017-11-19T08:06:27.968Z,2833
2017-11-19T08:06:58.070Z,2477
2017-11-19T08:07:28.039Z,2603
2017-11-19T08:07:58.247Z,2863
2017-11-19T08:08:28.132Z,4267
2017-11-19T08:08:58.126Z,3487
2017-11-19T08:09:28.199Z,3023
2017-11-19T08:09:58.219Z,2720
2017-11-19T08:10:28.212Z,3673
2017-11-19T08:10:58.288Z,2900
2017-11-19T08:11:28.277Z,3000
2017-11-19T08:11:58.586Z,3077
2017-11-19T08:12:28.403Z,3070
2017-11-19T08:12:58.380Z,3763
2017-11-19T08:13:28.446Z,5890
2017-11-19T08:13:58.508Z,4997
2017-11-19T08:14:28.521Z,6490
2017-11-19T08:14:58.526Z,6743
2017-11-19T08:15:28.556Z,6830
2017-11-19T08:15:58.592Z,7660
2017-11-19T08:16:28.650Z,7810
2017-11-19T08:16:58.711Z,7590
2017-11-19T08:17:28.727Z,8603
2017-11-19T08:17:58.722Z,7203
2017-11-19T08:18:28.776Z,5227
2017-11-19T08:18:58.820Z,8353
2017-11-19T08:19:28.788Z,8653
2017-11-19T08:19:58.827Z,8600
2017-11-19T08:20:28.864Z,8733
2017-11-19T08:20:58.905Z,6330
2017-11-19T08:21:28.965Z,5450
2017-11-19T08:21:58.999Z,5323
2017-11-19T08:22:28.969Z,5067
2017-11-19T08:22:59.036Z,3283
2017-11-19T08:23:29.018Z,3027
2017-11-19T08:23:59.110Z,3573
2017-11-19T08:24:29.134Z,3220
2017-11-19T08:24:59.105Z,8110
2017-11-19T08:25:29.174Z,9883
2017-11-19T08:25:59.233Z,9353
2017-11-19T08:26:29.236Z,9073
2017-11-19T08:26:59.309Z,7650
2017-11-19T08:27:29.358Z,7870
2017-11-19T08:27:59.325Z,9183
2017-11-19T08:28:29.398Z,10490
2017-11-19T08:28:59.401Z,11907
2017-11-19T08:29:29.403Z,11737
2017-11-19T08:29:59.434Z,11553
2017-11-19T08:30:29.473Z,11400
2017-11-19T08:30:59.514Z,10613
2017-11-19T08:31:29.526Z,7140
2017-11-19T08:31:59.657Z,4593
2017-11-19T08:32:29.573Z,5107
2017-11-19T08:32:59.600Z,3727
2017-11-19T08:33:29.664Z,3893
2017-11-19T08:33:59.667Z,4317
2017-11-19T08:34:29.688Z,5237
2017-11-19T08:34:59.733Z,8087
2017-11-19T08:35:29.804Z,12757
2017-11-19T08:35:59.791Z,11680
2017-11-19T08:36:29.819Z,7430
2017-11-19T08:36:59.905Z,10900
2017-11-19T08:37:29.876Z,5703
2017-11-19T08:37:59.943Z,5490
2017-11-19T08:38:29.939Z,5340
2017-11-19T08:39:00.014Z,4933
2017-11-19T08:39:30.001Z,4480
2017-11-19T08:40:00.053Z,4920
2017-11-19T08:40:30.096Z,4243
2017-11-19T08:41:00.093Z,4763
2017-11-19T08:41:30.131Z,5010
2017-11-19T08:42:00.215Z,5383
2017-11-19T08:42:30.255Z,5793
2017-11-19T08:43:00.834Z,5920
2017-11-19T08:43:30.256Z,5650
2017-11-19T08:44:00.622Z,6057
2017-11-19T08:44:30.394Z,6827
2017-11-19T08:45:01.465Z,11030
2017-11-19T08:45:30.436Z,8137
2017-11-19T08:46:00.968Z,14280
2017-11-19T08:46:30.507Z,14120
2017-11-19T08:47:01.636Z,13417
2017-11-19T08:47:30.522Z,11923
2017-11-19T08:48:01.360Z,5697
2017-11-19T08:48:30.563Z,5447
2017-11-19T08:49:00.782Z,3577
2017-11-19T08:49:30.678Z,3383
2017-11-19T08:50:01.004Z,3480
2017-11-19T08:50:30.674Z,3673
2017-11-19T08:51:00.699Z,3707
2017-11-19T08:51:30.759Z,3897
2017-11-19T08:52:00.770Z,3637
2017-11-19T08:52:30.819Z,3483
2017-11-19T08:53:00.853Z,3497
2017-11-19T08:53:30.856Z,3133
2017-11-19T08:54:02.042Z,2630
2017-11-19T08:54:30.927Z,2340
2017-11-19T08:55:00.970Z,2190
2017-11-19T08:55:30.980Z,2097
2017-11-19T08:56:01.012Z,2033
2017-11-19T08:56:31.041Z,2030
2017-11-19T08:57:01.077Z,2043
2017-11-19T08:57:31.121Z,2023
2017-11-19T08:58:01.166Z,1853
2017-11-19T08:58:31.180Z,1663
2017-11-19T08:59:01.302Z,1540
2017-11-19T08:59:31.226Z,1587
2017-11-19T09:00:01.334Z,1657
2017-11-19T09:00:31.319Z,1757
2017-11-19T09:01:01.377Z,1860
2017-11-19T09:01:31.346Z,1757
2017-11-19T09:02:01.448Z,1440
2017-11-19T09:02:31.450Z,1353
2017-11-19T09:03:01.502Z,1327
2017-11-19T09:03:31.544Z,1287
2017-11-19T09:04:01.523Z,1243
2017-11-19T09:04:31.585Z,1143
2017-11-19T09:05:01.667Z,1357
2017-11-19T09:05:31.626Z,1613
2017-11-19T09:06:01.702Z,1913
2017-11-19T09:06:31.687Z,2260
2017-11-19T09:07:01.717Z,2357
2017-11-19T09:07:31.776Z,2440
2017-11-19T09:08:01.817Z,2407
2017-11-19T09:08:31.846Z,2217
2017-11-19T09:09:02.371Z,2083
2017-11-19T09:09:31.915Z,1907
2017-11-19T09:10:01.948Z,1663
2017-11-19T09:10:31.926Z,1490
2017-11-19T09:11:02.014Z,1320
2017-11-19T09:11:31.988Z,1247
2017-11-19T09:12:02.055Z,1097
2017-11-19T09:12:32.084Z,940
2017-11-19T09:13:02.127Z,770
2017-11-19T09:13:32.159Z,640
2017-11-19T09:14:02.155Z,570
2017-11-19T09:14:32.194Z,567
2017-11-19T09:15:02.182Z,573
2017-11-19T09:15:32.217Z,570
2017-11-19T09:16:02.237Z,620
2017-11-19T09:16:32.327Z,700
2017-11-19T09:17:02.363Z,850
2017-11-19T09:17:32.365Z,1047
2017-11-19T09:18:02.429Z,1127
2017-11-19T09:18:32.476Z,1210
2017-11-19T09:19:02.475Z,1347
2017-11-19T09:19:32.506Z,1480
2017-11-19T09:20:02.609Z,1660
2017-11-19T09:20:32.547Z,1930
2017-11-19T09:21:02.544Z,2360
2017-11-19T09:21:32.658Z,2773
2017-11-19T09:22:02.680Z,3223
2017-11-19T09:22:32.660Z,4057
2017-11-19T09:23:02.675Z,4410
2017-11-19T09:23:32.783Z,4203
2017-11-19T09:24:02.760Z,4907
2017-11-19T09:24:32.807Z,3913
2017-11-19T09:25:02.797Z,3233
2017-11-19T09:25:32.825Z,3383
2017-11-19T09:26:02.857Z,4223
2017-11-19T09:26:32.880Z,5087
2017-11-19T09:27:02.925Z,6140
2017-11-19T09:27:32.963Z,7307
2017-11-19T09:28:02.973Z,8203
2017-11-19T09:28:33.056Z,7600
2017-11-19T09:29:03.044Z,6970
2017-11-19T09:29:33.074Z,8730
2017-11-19T09:30:03.099Z,12053
2017-11-19T09:30:33.171Z,8887
2017-11-19T09:31:03.162Z,6113
2017-11-19T09:31:33.198Z,2950
2017-11-19T09:32:03.251Z,2790
2017-11-19T09:32:33.253Z,3457
2017-11-19T09:33:03.324Z,3953
2017-11-19T09:33:33.500Z,4567
2017-11-19T09:34:03.395Z,4840
2017-11-19T09:34:33.410Z,5493
2017-11-19T09:35:03.499Z,5743
2017-11-19T09:35:33.555Z,5563
2017-11-19T09:36:03.500Z,5623
2017-11-19T09:36:33.533Z,5157
2017-11-19T09:37:03.549Z,4540
2017-11-19T09:37:33.562Z,4017
2017-11-19T09:38:03.593Z,3200
2017-11-19T09:38:33.667Z,2777
2017-11-19T09:39:03.664Z,2987
2017-11-19T09:39:33.724Z,3233
2017-11-19T09:40:03.757Z,3047
2017-11-19T09:40:33.760Z,3057
2017-11-19T09:41:03.779Z,3050
2017-11-19T09:41:33.831Z,3240
2017-11-19T09:42:03.844Z,3360
2017-11-19T09:42:33.908Z,3100
2017-11-19T09:43:03.910Z,3183
2017-11-19T09:43:34.019Z,3780
2017-11-19T09:44:03.964Z,4467
2017-11-19T09:44:34.000Z,5000
2017-11-19T09:45:04.046Z,5287
2017-11-19T09:45:34.052Z,5637
2017-11-19T09:46:04.088Z,5283
2017-11-19T09:46:34.114Z,5153
2017-11-19T09:47:04.178Z,4977
2017-11-19T09:47:34.224Z,5020
2017-11-19T09:48:04.203Z,4497
2017-11-19T09:48:34.281Z,4133
2017-11-19T09:49:04.364Z,3403
2017-11-19T09:49:34.301Z,3077
2017-11-19T09:50:04.381Z,2777
2017-11-19T09:50:34.455Z,2693
2017-11-19T09:51:04.434Z,2413
2017-11-19T09:51:34.433Z,2243
2017-11-19T09:52:04.501Z,2293
2017-11-19T09:52:34.523Z,2243
2017-11-19T09:53:04.545Z,2370
2017-11-19T09:53:34.615Z,2220
2017-11-19T09:54:04.611Z,2030
2017-11-19T09:54:34.703Z,1767
2017-11-19T09:55:04.688Z,1643
2017-11-19T09:55:34.715Z,1470
2017-11-19T09:56:04.791Z,1383
2017-11-19T09:56:34.753Z,1293
2017-11-19T09:57:04.803Z,1213
2017-11-19T09:57:34.824Z,1183
2017-11-19T09:58:04.860Z,1353
2017-11-19T09:58:34.881Z,1693
2017-11-19T09:59:04.954Z,2373
2017-11-19T09:59:34.975Z,2957
2017-11-19T10:00:04.986Z,3387
2017-11-19T10:01:05.038Z,3257
2017-11-19T10:01:35.069Z,3607
2017-11-19T10:02:05.103Z,3703
2017-11-19T10:02:35.168Z,3840
2017-11-19T10:03:05.191Z,3763
2017-11-19T10:03:35.178Z,4230
2017-11-19T10:04:05.215Z,4513
2017-11-19T10:04:35.313Z,5093
2017-11-19T10:05:05.330Z,5600
2017-11-19T10:05:35.389Z,5247
2017-11-19T10:06:05.382Z,4450
2017-11-19T10:06:35.427Z,3797
2017-11-19T10:07:05.427Z,3190
2017-11-19T10:07:35.428Z,3237
2017-11-19T10:08:05.449Z,3580
2017-11-19T10:08:35.504Z,3563
2017-11-19T10:09:05.537Z,4267
2017-11-19T10:09:35.620Z,3540
2017-11-19T10:10:05.581Z,2707
2017-11-19T10:10:35.641Z,2563
2017-11-19T10:11:05.646Z,2550
2017-11-19T10:11:35.656Z,2573
2017-11-19T10:12:05.677Z,2493
2017-11-19T10:12:35.722Z,2360
2017-11-19T10:13:05.774Z,2523
2017-11-19T10:13:35.780Z,2773
2017-11-19T10:14:05.801Z,2933
2017-11-19T10:14:35.889Z,2907
2017-11-19T10:15:05.871Z,3003
2017-11-19T10:15:35.894Z,2927
2017-11-19T10:16:05.936Z,2867
2017-11-19T10:16:35.956Z,3217
2017-11-19T10:17:05.995Z,3267
2017-11-19T10:17:36.022Z,3437
2017-11-19T10:18:06.049Z,4023
2017-11-19T10:18:36.076Z,4747
2017-11-19T10:19:06.168Z,5453
2017-11-19T10:19:36.186Z,6603
2017-11-19T10:20:06.212Z,15493
2017-11-19T10:20:36.285Z,6417
2017-11-19T10:21:06.242Z,6400
2017-11-19T10:21:36.279Z,7273
2017-11-19T10:22:06.324Z,8000
2017-11-19T10:22:36.345Z,8423
2017-11-19T10:23:06.387Z,8170
2017-11-19T10:23:36.434Z,8890
2017-11-19T10:24:06.417Z,9753
2017-11-19T10:24:36.533Z,8070
2017-11-19T10:25:06.500Z,7400
2017-11-19T10:25:36.508Z,8290
2017-11-19T10:26:06.580Z,8990
2017-11-19T10:26:36.586Z,9133
2017-11-19T10:27:06.661Z,8750
2017-11-19T10:27:36.643Z,7540
2017-11-19T10:28:06.664Z,6450
2017-11-19T10:28:36.697Z,5327
2017-11-19T10:29:06.753Z,4967
2017-11-19T10:29:36.801Z,4320
2017-11-19T10:30:06.805Z,4570
2017-11-19T10:30:36.937Z,5080
2017-11-19T10:31:06.850Z,5290
2017-11-19T10:31:36.880Z,5687
2017-11-19T10:32:06.911Z,6037
2017-11-19T10:32:36.939Z,6633
2017-11-19T10:33:06.967Z,7993
2017-11-19T10:33:37.002Z,8960
2017-11-19T10:34:07.028Z,10257
2017-11-19T10:34:37.135Z,6717
2017-11-19T10:35:07.093Z,5683
2017-11-19T10:35:37.154Z,5467
2017-11-19T10:36:07.188Z,5003
2017-11-19T10:36:37.241Z,3567
2017-11-19T10:37:07.213Z,3097
2017-11-19T10:37:37.263Z,2967
2017-11-19T10:38:07.314Z,3040
2017-11-19T10:38:37.365Z,3127
2017-11-19T10:39:07.391Z,2843
2017-11-19T10:39:37.447Z,2463
2017-11-19T10:40:07.464Z,2110
2017-11-19T10:40:37.466Z,1800
2017-11-19T10:41:07.502Z,1527
2017-11-19T10:41:37.559Z,1217
2017-11-19T10:42:07.555Z,1027
2017-11-19T10:42:37.631Z,850
2017-11-19T10:43:07.581Z,710
2017-11-19T10:43:37.660Z,607
2017-11-19T10:44:07.690Z,530
2017-11-19T10:44:37.717Z,493
2017-11-19T10:45:07.750Z,497
2017-11-19T10:45:37.828Z,510
2017-11-19T10:46:07.790Z,550
2017-11-19T10:46:37.850Z,563
2017-11-19T10:47:07.904Z,603
2017-11-19T10:47:37.894Z,673
2017-11-19T10:48:07.922Z,753
2017-11-19T10:48:37.958Z,853
2017-11-19T10:49:08.016Z,877
2017-11-19T10:49:38.040Z,863
2017-11-19T10:50:08.070Z,873
2017-11-19T10:50:38.101Z,840
2017-11-19T10:51:08.074Z,797
2017-11-19T10:51:38.171Z,717
2017-11-19T10:52:08.164Z,590
2017-11-19T10:52:38.180Z,507
2017-11-19T10:53:08.246Z,440
2017-11-19T10:53:38.260Z,387
2017-11-19T10:54:08.306Z,383
2017-11-19T10:54:38.343Z,380
2017-11-19T10:55:08.402Z,397
2017-11-19T10:55:38.469Z,427
2017-11-19T10:56:08.459Z,420
2017-11-19T10:56:38.459Z,450
2017-11-19T10:57:08.455Z,487
2017-11-19T10:57:38.514Z,527
2017-11-19T10:58:08.529Z,573
2017-11-19T10:58:38.555Z,650
2017-11-19T10:59:08.628Z,737
2017-11-19T10:59:38.628Z,780
2017-11-19T11:00:08.663Z,770
2017-11-19T11:00:38.691Z,757
2017-11-19T11:01:08.693Z,687
2017-11-19T11:01:38.751Z,660
2017-11-19T11:02:08.764Z,657
2017-11-19T11:02:38.810Z,723
2017-11-19T11:03:08.813Z,790
2017-11-19T11:03:38.888Z,863
2017-11-19T11:04:08.887Z,883
2017-11-19T11:05:08.938Z,873
2017-11-19T11:05:39.023Z,910
2017-11-19T11:06:09.000Z,997
2017-11-19T11:06:39.069Z,1113
2017-11-19T11:07:09.056Z,1277
2017-11-19T11:07:39.105Z,1390
2017-11-19T11:08:09.149Z,1600
2017-11-19T11:08:39.151Z,1793
2017-11-19T11:09:09.207Z,2017
2017-11-19T11:09:39.259Z,2073
2017-11-19T11:10:09.286Z,2223
2017-11-19T11:10:39.398Z,2327
2017-11-19T11:11:09.371Z,2397
2017-11-19T11:11:39.374Z,2700
2017-11-19T11:12:09.815Z,2943
2017-11-19T11:12:39.453Z,3183
2017-11-19T11:13:09.485Z,3280
2017-11-19T11:13:39.512Z,3137
2017-11-19T11:14:09.531Z,2883
2017-11-19T11:14:39.569Z,2680
2017-11-19T11:15:09.569Z,2260
2017-11-19T11:15:39.609Z,2007
2017-11-19T11:16:09.613Z,1763
2017-11-19T11:16:39.669Z,1687
2017-11-19T11:17:09.681Z,1643
2017-11-19T11:17:39.724Z,1723
2017-11-19T11:18:09.745Z,1693
2017-11-19T11:18:39.766Z,1827
2017-11-19T11:19:09.814Z,1970
2017-11-19T11:19:39.827Z,2057
2017-11-19T11:20:09.860Z,2263
2017-11-19T11:20:39.948Z,2507
2017-11-19T11:21:09.917Z,2290
2017-11-19T11:21:39.954Z,2187
2017-11-19T11:22:09.981Z,2093
2017-11-19T11:22:40.053Z,1710
2017-11-19T11:23:10.074Z,1400
2017-11-19T11:23:40.077Z,1037
2017-11-19T11:24:10.115Z,730
2017-11-19T11:24:40.157Z,567
2017-11-19T11:25:10.181Z,530
2017-11-19T11:25:40.328Z,543
2017-11-19T11:26:10.243Z,647
2017-11-19T11:26:40.301Z,807
2017-11-19T11:27:10.321Z,893
2017-11-19T11:27:40.318Z,983
2017-11-19T11:28:10.402Z,1117
2017-11-19T11:28:40.384Z,1293
2017-11-19T11:29:10.473Z,1503
2017-11-19T11:29:40.576Z,1737
2017-11-19T11:30:10.504Z,1920
2017-11-19T11:30:40.570Z,1873
2017-11-19T11:31:10.558Z,1863
2017-11-19T11:31:40.619Z,2000
2017-11-19T11:32:10.658Z,2390
2017-11-19T11:32:40.705Z,2667
2017-11-19T11:33:10.736Z,3143
2017-11-19T11:33:40.688Z,3327
2017-11-19T11:34:10.729Z,3423
2017-11-19T11:34:40.788Z,3110
2017-11-19T11:35:10.825Z,2650
2017-11-19T11:35:40.891Z,2487
2017-11-19T11:36:10.864Z,2810
2017-11-19T11:36:40.892Z,3043
2017-11-19T11:37:10.962Z,3287
2017-11-19T11:37:40.941Z,3607
2017-11-19T11:38:10.960Z,3710
2017-11-19T11:38:41.029Z,4010
2017-11-19T11:39:11.045Z,4397
2017-11-19T11:39:41.076Z,4787
2017-11-19T11:40:11.116Z,4643
2017-11-19T11:40:41.247Z,4037
2017-11-19T11:41:11.172Z,3600
2017-11-19T11:41:41.181Z,3410
2017-11-19T11:42:11.206Z,4970
2017-11-19T11:42:41.260Z,4533
2017-11-19T11:43:11.304Z,4190
2017-11-19T11:43:41.353Z,3477
2017-11-19T11:44:11.336Z,2883
2017-11-19T11:44:41.368Z,2617
2017-11-19T11:45:11.421Z,3077
2017-11-19T11:45:41.474Z,3700
2017-11-19T11:46:11.466Z,3507
2017-11-19T11:46:41.492Z,3773
2017-11-19T11:47:11.565Z,3957
2017-11-19T11:47:41.633Z,4507
2017-11-19T11:48:11.609Z,5163
2017-11-19T11:48:41.626Z,5340
2017-11-19T11:49:11.634Z,5547
2017-11-19T11:49:41.722Z,4783
2017-11-19T11:50:11.716Z,3900
2017-11-19T11:50:41.984Z,3820
2017-11-19T11:51:11.785Z,3803
2017-11-19T11:51:41.797Z,4117
2017-11-19T11:52:11.843Z,3960
2017-11-19T11:52:41.854Z,3857
2017-11-19T11:53:11.881Z,3587
2017-11-19T11:53:41.934Z,3507
2017-11-19T11:54:11.953Z,3600
2017-11-19T11:54:41.976Z,3343
2017-11-19T11:55:12.004Z,3197
2017-11-19T11:55:42.034Z,3047
2017-11-19T11:56:12.095Z,3040
2017-11-19T11:56:42.119Z,3160
2017-11-19T11:57:12.208Z,3207
2017-11-19T11:57:42.179Z,2970
2017-11-19T11:58:12.224Z,3313
2017-11-19T11:58:42.226Z,3123
2017-11-19T11:59:12.300Z,3290
2017-11-19T11:59:42.357Z,3470
2017-11-19T12:00:12.352Z,3620
2017-11-19T12:00:42.413Z,3820
2017-11-19T12:01:12.469Z,3430
2017-11-19T12:01:42.486Z,3010
2017-11-19T12:02:12.451Z,3000
2017-11-19T12:02:42.505Z,3173
2017-11-19T12:03:12.523Z,3827
2017-11-19T12:03:42.538Z,3840
2017-11-19T12:04:12.599Z,3630
2017-11-19T12:04:42.654Z,2933
2017-11-19T12:05:12.662Z,2517
2017-11-19T12:05:42.684Z,2203
2017-11-19T12:06:12.726Z,2213
2017-11-19T12:06:42.726Z,2150
2017-11-19T12:07:12.796Z,1943
2017-11-19T12:07:42.778Z,1670
2017-11-19T12:08:12.804Z,1417
2017-11-19T12:08:42.842Z,1187
2017-11-19T12:09:12.867Z,1157
2017-11-19T12:09:42.900Z,1120
2017-11-19T12:10:12.926Z,1287
2017-11-19T12:10:42.959Z,1510
2017-11-19T12:11:13.002Z,1663
2017-11-19T12:11:43.042Z,1610
2017-11-19T12:12:43.084Z,1440
2017-11-19T12:13:13.116Z,1423
2017-11-19T12:13:43.233Z,1327
2017-11-19T12:14:13.173Z,1180
2017-11-19T12:14:43.296Z,1240
2017-11-19T12:15:13.294Z,1250
2017-11-19T12:15:43.297Z,1257
2017-11-19T12:16:13.298Z,1293
2017-11-19T12:16:43.393Z,1217
2017-11-19T12:17:13.400Z,1240
2017-11-19T12:17:43.536Z,1243
2017-11-19T12:18:13.476Z,1280
2017-11-19T12:18:43.485Z,1483
2017-11-19T12:19:13.514Z,1530
2017-11-19T12:19:43.564Z,1593
2017-11-19T12:20:13.596Z,1533
2017-11-19T12:20:43.617Z,1413
2017-11-19T12:21:13.692Z,1287
2017-11-19T12:21:43.664Z,1257
2017-11-19T12:22:13.677Z,1340
2017-11-19T12:22:43.756Z,1507
2017-11-19T12:23:13.773Z,1430
2017-11-19T12:23:43.801Z,1507
2017-11-19T12:24:13.785Z,1487
2017-11-19T12:24:43.850Z,1523
2017-11-19T12:25:13.887Z,1627
2017-11-19T12:25:43.947Z,1750
2017-11-19T12:26:14.019Z,1793
2017-11-19T12:26:43.974Z,1993
2017-11-19T12:27:14.017Z,2060
2017-11-19T12:27:44.043Z,2150
2017-11-19T12:28:14.081Z,2383
2017-11-19T12:28:44.110Z,2377
2017-11-19T12:29:14.139Z,2420
2017-11-19T12:29:44.165Z,2307
2017-11-19T12:30:14.201Z,2317
2017-11-19T12:30:44.198Z,2577
2017-11-19T12:31:14.332Z,2610
2017-11-19T12:31:44.329Z,2660
2017-11-19T12:32:14.340Z,2560
2017-11-19T12:32:44.366Z,2380
2017-11-19T12:33:14.368Z,1917
2017-11-19T12:33:44.429Z,1473
2017-11-19T12:34:14.446Z,1143
2017-11-19T12:34:44.486Z,953
2017-11-19T12:35:14.494Z,853
2017-11-19T12:35:44.548Z,830
2017-11-19T12:36:14.606Z,770
2017-11-19T12:36:44.557Z,717
2017-11-19T12:37:14.584Z,617
2017-11-19T12:37:44.620Z,563
2017-11-19T12:38:14.699Z,570
2017-11-19T12:39:14.707Z,573
2017-11-19T12:39:44.772Z,640
2017-11-19T12:40:14.772Z,643
2017-11-19T12:40:44.811Z,687
2017-11-19T12:41:14.867Z,663
2017-11-19T12:41:44.858Z,640
2017-11-19T12:42:44.933Z,683
2017-11-19T12:43:14.954Z,697
2017-11-19T12:43:44.987Z,707
2017-11-19T12:44:15.031Z,673
2017-11-19T12:44:45.107Z,563
2017-11-19T12:45:15.080Z,520
2017-11-19T12:45:45.119Z,493
2017-11-19T12:46:15.223Z,507
2017-11-19T12:46:45.233Z,533
2017-11-19T12:47:15.235Z,607
2017-11-19T12:47:45.280Z,690
2017-11-19T12:48:15.273Z,767
2017-11-19T12:48:45.326Z,803
2017-11-19T12:49:15.351Z,777
2017-11-19T12:49:45.404Z,737
2017-11-19T12:50:15.408Z,757
2017-11-19T12:50:45.453Z,800
2017-11-19T12:51:15.577Z,993
2017-11-19T12:51:45.527Z,1057
2017-11-19T12:52:15.515Z,1140
2017-11-19T12:52:45.543Z,1290
2017-11-19T12:53:15.584Z,1267
2017-11-19T12:53:45.621Z,1320
2017-11-19T12:54:15.634Z,1443
2017-11-19T12:54:45.710Z,1467
2017-11-19T12:55:15.690Z,1447
2017-11-19T12:55:45.792Z,1353
2017-11-19T12:56:15.806Z,1147
2017-11-19T12:56:45.804Z,960
2017-11-19T12:57:15.826Z,723
2017-11-19T12:57:45.849Z,507
2017-11-19T12:58:15.894Z,460
2017-11-19T12:58:45.911Z,457
2017-11-19T12:59:15.951Z,503
2017-11-19T12:59:45.969Z,563
2017-11-19T13:00:15.995Z,600
2017-11-19T13:00:46.028Z,693
2017-11-19T13:01:16.084Z,737
2017-11-19T13:01:46.146Z,787
2017-11-19T13:02:16.132Z,773
2017-11-19T13:02:46.160Z,937
2017-11-19T13:03:16.219Z,970
2017-11-19T13:03:46.253Z,1017
2017-11-19T13:04:16.302Z,983
2017-11-19T13:04:46.378Z,1157
2017-11-19T13:05:16.313Z,1250
2017-11-19T13:05:46.370Z,1403
2017-11-19T13:06:16.477Z,1457
2017-11-19T13:06:46.445Z,1263
2017-11-19T13:07:16.477Z,1267
2017-11-19T13:07:46.524Z,1073
2017-11-19T13:08:16.532Z,937
2017-11-19T13:08:46.574Z,837
2017-11-19T13:09:16.589Z,753
2017-11-19T13:09:46.673Z,730
2017-11-19T13:10:16.678Z,657
2017-11-19T13:10:46.731Z,670
2017-11-19T13:11:16.801Z,677
2017-11-19T13:11:46.760Z,867
2017-11-19T13:12:16.820Z,933
2017-11-19T13:12:46.811Z,1137